createdAt,value
2023-02-11T00:08:25.016Z,-1.93
2023-02-11T00:18:29.055Z,-2.18
2023-02-11T00:28:33.602Z,-1.49
2023-02-11T00:38:36.802Z,-1.36
2023-02-11T00:48:41.851Z,-1.51
2023-02-11T00:58:45.032Z,-1.67
2023-02-11T01:08:49.724Z,-1.74
2023-02-11T01:18:52.870Z,-2.17
2023-02-11T01:28:57.379Z,-1.87
2023-02-11T01:39:00.533Z,-1.83
2023-02-11T01:49:08.878Z,-1.83
2023-02-11T01:59:14.806Z,-1.98
2023-02-11T02:09:22.550Z,-2.25
2023-02-11T02:20:04.766Z,-2.13
2023-02-11T02:30:40.830Z,-2.27
2023-02-11T02:40:51.409Z,-2.31
2023-02-11T02:51:02.816Z,-2.22
2023-02-11T03:01:14.578Z,-2.57
2023-02-11T03:11:19.759Z,-2.39
2023-02-11T03:21:25.253Z,-2.56
2023-02-11T03:31:31.646Z,-3.62
2023-02-11T03:41:37.177Z,-2.83
2023-02-11T03:51:40.820Z,-3.08
2023-02-11T04:01:45.322Z,-2.97
2023-02-11T04:11:48.537Z,-2.91
2023-02-11T04:21:53.016Z,-2.85
2023-02-11T04:31:56.479Z,-2.98
2023-02-11T04:42:00.979Z,-2.85
2023-02-11T04:52:04.068Z,-2.97
2023-02-11T05:02:08.613Z,-3.01
2023-02-11T05:12:11.762Z,-3.17
2023-02-11T05:22:16.241Z,-3.28
2023-02-11T05:32:19.385Z,-3.22
2023-02-11T05:42:23.863Z,-3.42
2023-02-11T05:52:27.072Z,-3.47
2023-02-11T06:02:31.620Z,-3.45
2023-02-11T06:12:34.741Z,-3.24
2023-02-11T06:22:39.379Z,-3.34
2023-02-11T06:32:44.823Z,-3.11
2023-02-11T06:42:49.976Z,-2.85
2023-02-11T06:52:53.075Z,-2.42
2023-02-11T07:19:12.586Z,-0.66
2023-02-11T07:29:16.010Z,0.64
2023-02-11T07:39:21.911Z,1.98
2023-02-11T07:49:25.403Z,1.29
2023-02-11T07:59:29.898Z,1.70
2023-02-11T08:09:34.618Z,1.81
2023-02-11T08:19:40.152Z,1.90
2023-02-11T08:29:43.300Z,2.00
2023-02-11T08:39:48.364Z,1.97
2023-02-11T08:49:51.676Z,2.14
2023-02-11T08:59:56.393Z,2.63
2023-02-11T09:09:59.570Z,3.21
2023-02-11T09:20:04.682Z,3.65
2023-02-11T09:30:08.841Z,3.91
2023-02-11T09:40:14.222Z,4.33
2023-02-11T09:50:20.580Z,5.38
2023-02-11T10:00:28.726Z,5.60
2023-02-11T10:10:43.354Z,5.62
2023-02-11T10:20:53.579Z,5.69
2023-02-11T10:30:59.279Z,6.02
2023-02-11T10:41:04.136Z,6.20
2023-02-11T10:51:17.310Z,6.75
2023-02-11T11:01:24.767Z,7.39
2023-02-11T11:11:28.527Z,6.58
2023-02-11T11:21:36.793Z,6.52
2023-02-11T11:31:48.214Z,7.26
2023-02-11T11:41:57.603Z,6.42
2023-02-11T11:52:13.273Z,7.58
2023-02-11T12:02:40.570Z,8.44
2023-02-11T12:12:49.113Z,8.85
2023-02-11T12:23:02.334Z,9.27
2023-02-11T12:33:12.947Z,9.56
2023-02-11T12:43:22.616Z,10.02
2023-02-11T12:53:40.591Z,10.22
2023-02-11T13:03:47.972Z,10.47
2023-02-11T13:13:54.901Z,10.28
2023-02-11T13:24:05.765Z,10.34
2023-02-11T13:34:24.867Z,10.28
2023-02-11T13:44:29.715Z,10.49
2023-02-11T13:54:39.276Z,10.82
2023-02-11T14:05:21.664Z,10.94
2023-02-11T14:15:28.962Z,10.49
2023-02-11T14:25:33.966Z,10.34
2023-02-11T14:35:42.183Z,10.25
2023-02-11T14:45:52.325Z,10.19
2023-02-11T14:55:56.306Z,10.05
2023-02-11T15:06:04.134Z,10.08
2023-02-11T15:16:11.032Z,9.95
2023-02-11T15:26:20.037Z,9.85
2023-02-11T15:36:28.504Z,9.74
2023-02-11T15:46:39.029Z,9.57
2023-02-11T15:56:44.630Z,9.29
2023-02-11T16:06:49.893Z,9.05
2023-02-11T16:16:57.123Z,8.85
2023-02-11T16:27:03.006Z,8.74
2023-02-11T16:37:06.834Z,8.65
2023-02-11T16:47:18.625Z,8.27
2023-02-11T16:57:23.947Z,8.10
2023-02-11T17:07:29.279Z,7.91
2023-02-11T17:17:32.700Z,7.75
2023-02-11T17:27:37.582Z,8.03
2023-02-11T17:37:41.079Z,8.43
2023-02-11T17:47:46.145Z,8.83
2023-02-11T17:57:49.466Z,9.08
2023-02-11T18:07:55.749Z,9.34
2023-02-11T18:17:58.949Z,9.15
2023-02-11T18:28:03.878Z,8.74
2023-02-11T18:38:07.276Z,8.60
2023-02-11T18:48:13.602Z,8.46
2023-02-11T18:58:17.153Z,8.49
2023-02-11T19:08:21.994Z,8.53
2023-02-11T19:18:25.130Z,8.35
2023-02-11T19:28:31.483Z,8.35
2023-02-11T19:38:36.552Z,8.23
2023-02-11T19:48:41.363Z,8.39
2023-02-11T19:58:45.378Z,8.10
2023-02-11T20:08:50.288Z,8.38
2023-02-11T20:18:54.846Z,8.32
2023-02-11T20:29:02.162Z,8.49
2023-02-11T20:39:06.579Z,8.44
2023-02-11T20:49:11.689Z,8.47
2023-02-11T20:59:16.559Z,8.42
2023-02-11T21:09:23.065Z,8.25
2023-02-11T21:19:26.567Z,8.17
2023-02-11T21:29:31.436Z,8.33
2023-02-11T21:39:34.813Z,8.64
2023-02-11T21:49:39.931Z,8.33
2023-02-11T21:59:43.882Z,8.71
2023-02-11T22:09:52.186Z,8.73
2023-02-11T22:19:55.973Z,8.49
2023-02-11T22:30:00.763Z,8.13
2023-02-11T22:40:04.037Z,7.56
2023-02-11T22:50:09.790Z,7.64
2023-02-11T23:00:14.340Z,7.18
2023-02-11T23:10:19.218Z,7.53
2023-02-11T23:20:22.357Z,7.43
2023-02-11T23:30:27.444Z,7.63
2023-02-11T23:40:30.864Z,7.50
2023-02-11T23:50:35.829Z,7.40
